Accueil
Images satellite Prévisions 15 joursClimatMétéo marine Cyclones Foudre AéroportsFAQ Actualités A propos
Météo : Europe Afrique Amérique du Nord Amérique du Sud Asie Australie-Océanie Autres
Langues Contact

Biarritz, France

Anglet

latitude: 43-28N, longitude: 001-32W, altitude: 75 m


METAR: LFBZ 301200Z VRB03KT CAVOK 27/15 Q1020 NOSIG
TAF: LFBZ 301100Z 3012/3112 12006KT CAVOK PROB30 TEMPO 3100/3112 18010KT

Heure: 13:10 (12:10 UTC)

Observation

Le bulletin a été fait il y a 10 minutes, à 12:00 UTC
Vent 3 kt de direction variable
Température 27°C
Humidité 48%
Pression 1020 hPa
Visibilité 10 km ou plus
pas de nuages en-dessous de 1500 mètres et pas de cumulonimbus.

Changer d'unités

Prévision

Le bulletin a été fait il y a 1 heure et 10 minutes, à 11:00 UTC
Prévision valable du 30 à 12 UTC au 31 à 12 UTC
Vent 6 kt de est/sud-est
Visibilité 10 km ou plus
pas de nuages en-dessous de 1500 mètres et pas de cumulonimbus.
Probabilité 30% :
Temporairement
du 31 à 00 UTC au 31 à 12 UTC
Vent 10 kt de sud
Les informations qui figurent sur ce site font l'objet d'une clause de non-responsabilité
Météo : Europe Afrique Amérique du Nord Amérique du Sud Asie Australie-Océanie Autres
Images satellite Prévisions 15 joursClimatMétéo marine Cyclones Foudre AéroportsFAQ Langues Contact Actualités A propos